createdAt,value
2019-05-25T00:00:41.219Z,101661.30
2019-05-25T00:03:14.516Z,101664.76
2019-05-25T00:05:47.968Z,101660.87
2019-05-25T00:08:21.235Z,101662.23
2019-05-25T00:10:54.633Z,101662.71
2019-05-25T00:13:27.935Z,101665.80
2019-05-25T00:16:01.591Z,101661.45
2019-05-25T00:18:34.907Z,101666.27
2019-05-25T00:21:08.244Z,101672.83
2019-05-25T00:23:41.567Z,101672.88
2019-05-25T00:26:14.907Z,101665.89
2019-05-25T00:28:48.227Z,101680.33
2019-05-25T00:31:21.645Z,101667.25
2019-05-25T00:33:54.952Z,101680.33
2019-05-25T00:36:28.358Z,101675.56
2019-05-25T00:39:01.660Z,101676.00
2019-05-25T00:41:36.238Z,101679.48
2019-05-25T00:44:09.576Z,101678.82
2019-05-25T00:46:42.943Z,101682.94
2019-05-25T00:49:16.244Z,101683.83
2019-05-25T00:51:49.534Z,101684.73
2019-05-25T00:54:28.016Z,101683.88
2019-05-25T00:56:58.987Z,101687.81
2019-05-25T00:59:32.416Z,101683.89
2019-05-25T01:02:05.758Z,101683.91
2019-05-25T01:04:39.052Z,101684.05
2019-05-25T01:07:12.405Z,101682.05
2019-05-25T01:09:45.715Z,101676.86
2019-05-25T01:12:19.069Z,101684.77
2019-05-25T01:14:52.543Z,101684.36
2019-05-25T01:17:26.036Z,101684.99
2019-05-25T01:19:59.330Z,101677.78
2019-05-25T01:22:32.665Z,101679.12
2019-05-25T01:25:06.135Z,101684.05
2019-05-25T01:27:40.787Z,101682.09
2019-05-25T01:30:14.103Z,101682.03
2019-05-25T01:32:47.564Z,101686.95
2019-05-25T01:35:20.870Z,101686.55
2019-05-25T01:37:54.210Z,101695.48
2019-05-25T01:40:28.586Z,101687.37
2019-05-25T01:43:01.933Z,101681.33
2019-05-25T01:45:35.242Z,101683.12
2019-05-25T01:48:08.575Z,101689.23
2019-05-25T01:50:41.891Z,101690.56
2019-05-25T01:53:15.348Z,101688.86
2019-05-25T01:55:48.657Z,101693.67
2019-05-25T01:58:21.996Z,101687.98
2019-05-25T02:00:55.303Z,101689.34
2019-05-25T02:03:28.682Z,101692.84
2019-05-25T02:06:01.970Z,101693.73
2019-05-25T02:08:35.283Z,101694.20
2019-05-25T02:11:08.580Z,101691.76
2019-05-25T02:13:41.956Z,101692.78
2019-05-25T02:16:15.267Z,101682.80
2019-05-25T02:18:48.630Z,101685.00
2019-05-25T02:21:21.941Z,101677.20
2019-05-25T02:23:55.295Z,101679.64
2019-05-25T02:26:28.609Z,101679.30
2019-05-25T02:29:01.951Z,101674.57
2019-05-25T02:31:35.243Z,101678.22
2019-05-25T02:34:08.589Z,101684.08
2019-05-25T02:36:41.886Z,101683.64
2019-05-25T02:39:15.251Z,101675.85
2019-05-25T02:41:48.606Z,101676.77
2019-05-25T02:44:21.993Z,101676.36
2019-05-25T02:46:55.289Z,101677.69
2019-05-25T02:49:30.198Z,101672.04
2019-05-25T02:52:03.487Z,101670.87
2019-05-25T02:54:37.903Z,101671.91
2019-05-25T02:57:12.265Z,101662.73
2019-05-25T02:59:45.595Z,101666.32
2019-05-25T03:02:18.943Z,101671.62
2019-05-25T03:04:52.233Z,101673.78
2019-05-25T03:07:25.554Z,101669.06
2019-05-25T03:09:58.871Z,101675.58
2019-05-25T03:12:32.230Z,101679.95
2019-05-25T03:15:07.055Z,101679.94
2019-05-25T03:17:40.524Z,101676.38
2019-05-25T03:20:14.794Z,101681.67
2019-05-25T03:22:48.833Z,101680.83
2019-05-25T03:25:22.148Z,101684.05
2019-05-25T03:27:55.493Z,101676.86
2019-05-25T03:30:36.461Z,101679.52
2019-05-25T03:33:09.783Z,101689.11
2019-05-25T03:35:43.113Z,101688.27
2019-05-25T03:38:16.449Z,101690.28
2019-05-25T03:40:49.772Z,101677.33
2019-05-25T03:43:23.112Z,101682.62
2019-05-25T03:45:56.420Z,101689.83
2019-05-25T03:48:29.790Z,101681.67
2019-05-25T03:51:03.080Z,101676.95
2019-05-25T03:53:37.496Z,101682.67
2019-05-25T03:56:10.806Z,101680.06
2019-05-25T03:58:44.131Z,101676.02
2019-05-25T04:01:17.431Z,101678.71
2019-05-25T04:03:50.752Z,101680.95
2019-05-25T04:06:24.086Z,101683.56
2019-05-25T04:08:57.209Z,101688.38
2019-05-25T04:11:30.597Z,101687.02
2019-05-25T04:14:03.937Z,101687.06
2019-05-25T04:16:37.296Z,101688.83
2019-05-25T04:19:10.599Z,101690.34
2019-05-25T04:21:44.219Z,101695.25
2019-05-25T04:24:17.523Z,101694.01
2019-05-25T04:26:50.908Z,101695.07
2019-05-25T04:29:24.232Z,101696.10
2019-05-25T04:31:57.567Z,101699.50
2019-05-25T04:34:30.863Z,101705.27
2019-05-25T04:37:04.215Z,101704.41
2019-05-25T04:39:37.533Z,101707.31
2019-05-25T04:42:10.861Z,101707.44
2019-05-25T04:44:44.192Z,101704.36
2019-05-25T04:47:26.493Z,101714.44
2019-05-25T04:49:52.626Z,101725.36
2019-05-25T04:52:25.923Z,101716.58
2019-05-25T04:54:59.262Z,101721.45
2019-05-25T04:57:32.569Z,101720.63
2019-05-25T05:00:06.479Z,101726.48
2019-05-25T05:02:39.801Z,101727.48
2019-05-25T05:05:13.391Z,101729.72
2019-05-25T05:07:46.827Z,101725.98
2019-05-25T05:10:20.120Z,101728.72
2019-05-25T05:12:54.515Z,101732.55
2019-05-25T05:15:27.870Z,101730.49
2019-05-25T05:18:01.165Z,101728.34
2019-05-25T05:20:34.588Z,101729.55
2019-05-25T05:23:09.561Z,101727.92
2019-05-25T05:25:42.902Z,101730.14
2019-05-25T05:28:16.215Z,101734.06
2019-05-25T05:30:49.546Z,101732.80
2019-05-25T05:33:22.909Z,101732.73
2019-05-25T05:35:56.245Z,101723.67
2019-05-25T05:38:29.607Z,101731.53
2019-05-25T05:41:03.084Z,101732.00
2019-05-25T05:43:36.708Z,101732.42
2019-05-25T05:46:09.999Z,101725.91
2019-05-25T05:48:43.339Z,101730.01
2019-05-25T05:51:19.070Z,101733.16
2019-05-25T05:53:54.221Z,101733.21
2019-05-25T05:56:27.640Z,101735.38
2019-05-25T05:59:01.229Z,101743.73
2019-05-25T06:01:34.586Z,101748.00
2019-05-25T06:04:07.920Z,101747.64
2019-05-25T06:06:41.219Z,101746.30
2019-05-25T06:09:14.553Z,101745.46
2019-05-25T06:11:47.904Z,101751.13
2019-05-25T06:14:21.266Z,101752.41
2019-05-25T06:16:54.588Z,101759.03
2019-05-25T06:19:27.924Z,101759.22
2019-05-25T06:22:01.236Z,101764.64
2019-05-25T06:24:34.781Z,101765.66
2019-05-25T06:27:08.123Z,101762.67
2019-05-25T06:29:41.472Z,101766.06
2019-05-25T06:32:14.874Z,101762.31
2019-05-25T06:34:48.204Z,101759.19
2019-05-25T06:37:22.502Z,101765.28
2019-05-25T06:39:55.818Z,101765.74
2019-05-25T06:42:29.347Z,101769.20
2019-05-25T06:45:03.444Z,101765.34
2019-05-25T06:47:36.962Z,101769.27
2019-05-25T06:50:10.297Z,101770.59
2019-05-25T06:52:43.605Z,101768.88
2019-05-25T06:55:16.941Z,101766.23
2019-05-25T06:57:50.248Z,101773.77
2019-05-25T07:00:23.576Z,101769.16
2019-05-25T07:02:56.905Z,101769.47
2019-05-25T07:05:30.253Z,101776.08
2019-05-25T07:08:03.382Z,101770.88
2019-05-25T07:10:37.690Z,101772.61
2019-05-25T07:13:11.010Z,101767.90
2019-05-25T07:15:45.774Z,101763.53
2019-05-25T07:18:20.086Z,101764.40
2019-05-25T07:20:53.448Z,101769.42
2019-05-25T07:23:28.415Z,101769.91
2019-05-25T07:26:01.748Z,101770.78
2019-05-25T07:28:35.062Z,101768.22
2019-05-25T07:31:08.424Z,101774.80
2019-05-25T07:33:41.727Z,101779.19
2019-05-25T07:36:15.063Z,101782.63
2019-05-25T07:38:48.381Z,101784.04
2019-05-25T07:41:21.954Z,101780.84
2019-05-25T07:43:55.301Z,101780.30
2019-05-25T07:46:28.636Z,101778.63
2019-05-25T07:49:01.981Z,101785.23
2019-05-25T07:51:35.328Z,101787.25
2019-05-25T07:54:08.699Z,101783.84
2019-05-25T07:56:42.165Z,101787.27
2019-05-25T07:59:15.483Z,101795.13
2019-05-25T08:01:48.842Z,101800.84
2019-05-25T08:04:22.196Z,101786.95
2019-05-25T08:06:55.549Z,101803.86
2019-05-25T08:09:28.923Z,101809.13
2019-05-25T08:12:02.549Z,101812.15
2019-05-25T08:14:36.754Z,101816.04
2019-05-25T08:17:10.266Z,101816.00
2019-05-25T08:19:43.690Z,101822.67
2019-05-25T08:22:17.022Z,101818.95
2019-05-25T08:24:50.521Z,101826.38
2019-05-25T08:27:23.847Z,101833.89
2019-05-25T08:29:57.191Z,101828.16
2019-05-25T08:32:30.485Z,101830.67
2019-05-25T08:35:05.426Z,101828.08
2019-05-25T08:37:40.297Z,101832.48
2019-05-25T08:40:13.661Z,101838.56
2019-05-25T08:42:47.053Z,101834.59
2019-05-25T08:45:20.417Z,101836.41
2019-05-25T08:47:56.809Z,101830.34
2019-05-25T08:50:37.690Z,101827.64
2019-05-25T08:53:03.824Z,101831.99
2019-05-25T08:55:37.184Z,101824.57
2019-05-25T08:58:10.474Z,101825.88
2019-05-25T09:00:44.308Z,101830.68
2019-05-25T09:03:17.597Z,101826.58
2019-05-25T09:05:50.938Z,101829.63
2019-05-25T09:08:24.262Z,101824.91
2019-05-25T09:10:57.601Z,101826.66
2019-05-25T09:13:32.575Z,101831.72
2019-05-25T09:16:05.914Z,101828.31
2019-05-25T09:18:39.224Z,101824.83
2019-05-25T09:21:12.582Z,101819.63
2019-05-25T09:23:48.686Z,101819.63
2019-05-25T09:26:20.983Z,101825.29
2019-05-25T09:29:04.109Z,101825.30
2019-05-25T09:31:30.136Z,101819.92
2019-05-25T09:34:03.317Z,101820.95
2019-05-25T09:36:36.634Z,101811.17
2019-05-25T09:39:10.243Z,101818.58
2019-05-25T09:41:43.558Z,101820.32
2019-05-25T09:44:16.931Z,101820.98
2019-05-25T09:46:50.234Z,101818.53
2019-05-25T09:49:23.667Z,101772.63
2019-05-25T09:51:56.993Z,101820.78
2019-05-25T09:54:30.309Z,101821.92
2019-05-25T09:57:03.643Z,101823.67
2019-05-25T09:59:36.981Z,101820.21
2019-05-25T10:02:10.292Z,101816.74
2019-05-25T10:04:43.631Z,101816.52
2019-05-25T10:07:17.102Z,101813.61
2019-05-25T10:09:50.509Z,101817.89
2019-05-25T10:12:23.884Z,101815.19
2019-05-25T10:14:57.240Z,101813.66
2019-05-25T10:17:30.553Z,101814.32
2019-05-25T10:20:05.169Z,101813.20
2019-05-25T10:22:39.608Z,101812.27
2019-05-25T10:25:13.437Z,101782.69
2019-05-25T10:27:46.761Z,101810.72
2019-05-25T10:30:20.102Z,101804.22
2019-05-25T10:32:54.636Z,101805.16
2019-05-25T10:35:27.999Z,101800.04
2019-05-25T10:38:01.333Z,101799.44
2019-05-25T10:40:34.672Z,101804.27
2019-05-25T10:43:07.975Z,101803.04
2019-05-25T10:45:41.315Z,101797.41
2019-05-25T10:48:14.613Z,101791.97
2019-05-25T10:50:49.528Z,101793.44
2019-05-25T10:53:22.826Z,101796.89
2019-05-25T10:55:56.140Z,101793.88
2019-05-25T10:58:29.456Z,101797.51
2019-05-25T11:01:02.810Z,101787.83
2019-05-25T11:03:36.111Z,101787.81
2019-05-25T11:06:09.476Z,101787.70
2019-05-25T11:08:42.789Z,101791.55
2019-05-25T11:11:15.936Z,101784.98
2019-05-25T11:13:49.244Z,101781.95
2019-05-25T11:16:22.597Z,101776.47
2019-05-25T11:18:55.943Z,101779.25
2019-05-25T11:21:29.277Z,101772.78
2019-05-25T11:24:02.662Z,101768.42
2019-05-25T11:26:36.169Z,101768.17
2019-05-25T11:29:09.479Z,101775.61
2019-05-25T11:31:42.854Z,101777.80
2019-05-25T11:34:16.053Z,101776.00
2019-05-25T11:36:49.433Z,101773.44
2019-05-25T11:39:22.737Z,101769.59
2019-05-25T11:41:56.090Z,101773.66
2019-05-25T11:44:29.443Z,101776.03
2019-05-25T11:47:02.809Z,101780.56
2019-05-25T11:49:36.407Z,101775.87
2019-05-25T11:52:09.758Z,101775.53
2019-05-25T11:54:43.075Z,101778.59
2019-05-25T11:57:16.417Z,101715.88
2019-05-25T11:59:49.703Z,101774.32
2019-05-25T12:02:23.121Z,101779.06
2019-05-25T12:04:56.445Z,101778.17
2019-05-25T12:07:29.775Z,101772.91
2019-05-25T12:10:03.345Z,101785.09
2019-05-25T12:12:37.727Z,101779.84
2019-05-25T12:15:11.034Z,101780.40
2019-05-25T12:17:44.341Z,101776.89
2019-05-25T12:20:17.728Z,101764.30
2019-05-25T12:22:51.059Z,101773.44
2019-05-25T12:25:24.374Z,101780.62
2019-05-25T12:27:57.917Z,101771.15
2019-05-25T12:30:40.263Z,101775.61
2019-05-25T12:33:06.244Z,101774.83
2019-05-25T12:35:39.957Z,101778.31
2019-05-25T12:38:13.311Z,101779.59
2019-05-25T12:40:53.760Z,101771.79
2019-05-25T12:43:21.777Z,101772.59
2019-05-25T12:45:55.738Z,101770.18
2019-05-25T12:48:29.178Z,101769.03
2019-05-25T12:51:02.491Z,101761.55
2019-05-25T12:53:35.839Z,101762.31
2019-05-25T12:56:12.126Z,101760.42
2019-05-25T12:58:46.107Z,101754.73
2019-05-25T13:01:19.410Z,101759.84
2019-05-25T13:03:53.870Z,101762.31
2019-05-25T13:06:27.184Z,101763.17
2019-05-25T13:09:00.534Z,101761.48
2019-05-25T13:11:33.884Z,101760.62
2019-05-25T13:14:14.597Z,101763.51
2019-05-25T13:16:42.401Z,101762.00
2019-05-25T13:19:15.781Z,101766.00
2019-05-25T13:21:49.158Z,101763.45
2019-05-25T13:24:22.521Z,101758.69
2019-05-25T13:26:55.838Z,101760.42
2019-05-25T13:29:29.172Z,101756.55
2019-05-25T13:32:02.469Z,101755.72
2019-05-25T13:34:35.808Z,101756.95
2019-05-25T13:37:09.109Z,101752.45
2019-05-25T13:39:42.445Z,101747.72
2019-05-25T13:42:16.519Z,101749.69
2019-05-25T13:44:49.941Z,101755.41
2019-05-25T13:47:24.917Z,101751.81
2019-05-25T13:49:58.255Z,101750.83
2019-05-25T13:52:31.566Z,101745.34
2019-05-25T13:55:05.631Z,101745.58
2019-05-25T13:57:39.036Z,101747.92
2019-05-25T14:00:12.452Z,101741.51
2019-05-25T14:02:47.085Z,101741.61
2019-05-25T14:05:20.452Z,101735.95
2019-05-25T14:07:53.799Z,101740.88
2019-05-25T14:10:27.133Z,101733.91
2019-05-25T14:13:00.537Z,101727.42
2019-05-25T14:15:33.880Z,101732.65
2019-05-25T14:18:07.176Z,101732.08
2019-05-25T14:20:40.675Z,101731.83
2019-05-25T14:23:13.988Z,101724.47
2019-05-25T14:25:47.331Z,101722.53
2019-05-25T14:28:22.392Z,101728.05
2019-05-25T14:30:55.826Z,101720.36
2019-05-25T14:33:30.216Z,101722.12
2019-05-25T14:36:03.602Z,101723.05
2019-05-25T14:38:36.924Z,101718.67
2019-05-25T14:41:10.238Z,101722.22
2019-05-25T14:43:43.595Z,101723.30
2019-05-25T14:46:27.473Z,101721.92
2019-05-25T14:48:51.944Z,101729.47
2019-05-25T14:51:25.273Z,101730.19
2019-05-25T14:53:58.620Z,101727.98
2019-05-25T14:56:31.959Z,101731.16
2019-05-25T14:59:05.335Z,101727.16
2019-05-25T15:01:38.657Z,101721.67
2019-05-25T15:04:12.205Z,101726.99
2019-05-25T15:06:45.506Z,101724.70
2019-05-25T15:09:19.877Z,101730.05
2019-05-25T15:11:54.114Z,101729.24
2019-05-25T15:14:27.592Z,101729.30
2019-05-25T15:17:01.866Z,101724.09
2019-05-25T15:19:35.245Z,101722.44
2019-05-25T15:22:08.590Z,101720.73
2019-05-25T15:24:41.991Z,101712.12
2019-05-25T15:27:15.248Z,101713.62
2019-05-25T15:29:48.610Z,101712.38
2019-05-25T15:32:22.039Z,101708.53
2019-05-25T15:34:55.542Z,101700.20
2019-05-25T15:37:30.470Z,101696.75
2019-05-25T15:40:07.049Z,101697.30
2019-05-25T15:42:40.591Z,101698.98
2019-05-25T15:45:13.870Z,101695.44
2019-05-25T15:47:48.822Z,101693.61
2019-05-25T15:50:22.146Z,101690.84
2019-05-25T15:52:56.837Z,101689.75
2019-05-25T15:55:30.368Z,101685.60
2019-05-25T15:58:03.723Z,101685.88
2019-05-25T16:00:50.452Z,101685.88
2019-05-25T16:03:23.876Z,101686.91
2019-05-25T16:05:57.178Z,101687.48
2019-05-25T16:08:30.518Z,101692.80
2019-05-25T16:11:03.849Z,101692.34
2019-05-25T16:13:37.155Z,101688.48
2019-05-25T16:16:10.503Z,101690.68
2019-05-25T16:18:43.813Z,101690.30
2019-05-25T16:21:17.289Z,101694.73
2019-05-25T16:23:50.609Z,101695.44
2019-05-25T16:26:23.950Z,101688.98
2019-05-25T16:28:57.262Z,101690.36
2019-05-25T16:31:30.645Z,101692.77
2019-05-25T16:34:03.949Z,101692.31
2019-05-25T16:36:37.305Z,101690.20
2019-05-25T16:39:10.763Z,101682.95
2019-05-25T16:41:44.198Z,101681.90
2019-05-25T16:44:17.509Z,101689.47
2019-05-25T16:46:50.923Z,101689.94
2019-05-25T16:49:24.229Z,101685.19
2019-05-25T16:51:57.569Z,101682.44
2019-05-25T16:54:30.947Z,101684.64
2019-05-25T16:57:04.331Z,101686.88
2019-05-25T16:59:37.638Z,101684.70
2019-05-25T17:02:10.991Z,101681.25
2019-05-25T17:04:44.346Z,101679.91
2019-05-25T17:07:17.693Z,101679.91
2019-05-25T17:09:50.995Z,101676.88
2019-05-25T17:12:24.368Z,101682.95
2019-05-25T17:14:57.692Z,101681.16
2019-05-25T17:17:31.102Z,101683.61
2019-05-25T17:20:04.977Z,101676.08
2019-05-25T17:22:38.386Z,101681.87
2019-05-25T17:25:11.902Z,101684.10
2019-05-25T17:27:45.239Z,101677.14
2019-05-25T17:30:21.839Z,101682.05
2019-05-25T17:32:55.430Z,101684.45
2019-05-25T17:35:29.059Z,101684.10
2019-05-25T17:38:02.598Z,101688.19
2019-05-25T17:40:35.956Z,101687.91
2019-05-25T17:43:09.367Z,101687.68
2019-05-25T17:45:42.680Z,101686.40
2019-05-25T17:48:16.930Z,101680.27
2019-05-25T17:50:50.400Z,101690.36
2019-05-25T17:53:23.735Z,101685.56
2019-05-25T17:55:57.133Z,101688.63
2019-05-25T17:58:30.512Z,101690.11
2019-05-25T18:01:03.827Z,101687.27
2019-05-25T18:03:37.279Z,101686.02
2019-05-25T18:06:10.649Z,101680.05
2019-05-25T18:08:44.001Z,101686.02
2019-05-25T18:11:17.336Z,101689.11
2019-05-25T18:13:52.149Z,101680.20
2019-05-25T18:16:25.544Z,101685.73
2019-05-25T18:18:58.896Z,101685.92
2019-05-25T18:21:32.056Z,101688.16
2019-05-25T18:24:05.513Z,101689.05
2019-05-25T18:26:39.019Z,101681.80
2019-05-25T18:29:12.343Z,101687.65
2019-05-25T18:31:45.786Z,101688.06
2019-05-25T18:34:22.034Z,101678.98
2019-05-25T18:36:54.621Z,101678.83
2019-05-25T18:39:27.819Z,101675.45
2019-05-25T18:42:01.228Z,101673.78
2019-05-25T18:44:34.555Z,101676.97
2019-05-25T18:47:07.987Z,101668.70
2019-05-25T18:49:41.285Z,101661.03
2019-05-25T18:52:14.652Z,101664.84
2019-05-25T18:54:48.017Z,101667.45
2019-05-25T18:57:21.428Z,101662.16
2019-05-25T18:59:54.809Z,101662.66
2019-05-25T19:02:28.249Z,101666.47
2019-05-25T19:05:01.929Z,101665.03
2019-05-25T19:07:35.670Z,101663.12
2019-05-25T19:10:09.971Z,101665.06
2019-05-25T19:12:43.320Z,101666.50
2019-05-25T19:15:16.816Z,101669.83
2019-05-25T19:17:50.394Z,101669.14
2019-05-25T19:20:23.730Z,101673.16
2019-05-25T19:22:57.060Z,101669.77
2019-05-25T19:25:30.383Z,101674.68
2019-05-25T19:28:03.746Z,101671.20
2019-05-25T19:30:37.049Z,101678.63
2019-05-25T19:33:10.503Z,101606.87
2019-05-25T19:35:43.804Z,101677.95
2019-05-25T19:38:17.161Z,101684.20
2019-05-25T19:40:50.487Z,101680.75
2019-05-25T19:43:23.866Z,101678.61
2019-05-25T19:45:57.171Z,101679.72
2019-05-25T19:48:32.089Z,101679.66
2019-05-25T19:51:05.414Z,101677.13
2019-05-25T19:53:38.764Z,101684.54
2019-05-25T19:56:12.126Z,101687.55
2019-05-25T19:58:45.434Z,101692.89
2019-05-25T20:01:18.792Z,101693.30
2019-05-25T20:03:52.086Z,101702.16
2019-05-25T20:06:25.453Z,101706.78
2019-05-25T20:08:58.814Z,101705.11
2019-05-25T20:11:32.135Z,101710.44
2019-05-25T20:14:05.914Z,101709.73
2019-05-25T20:16:39.411Z,101713.50
2019-05-25T20:19:12.767Z,101711.91
2019-05-25T20:21:46.106Z,101716.46
2019-05-25T20:24:19.464Z,101719.70
2019-05-25T20:26:52.801Z,101716.36
2019-05-25T20:29:26.240Z,101721.52
2019-05-25T20:32:00.206Z,101718.23
2019-05-25T20:34:33.836Z,101706.96
2019-05-25T20:37:07.142Z,101711.88
2019-05-25T20:39:40.503Z,101707.75
2019-05-25T20:42:15.160Z,101708.98
2019-05-25T20:44:48.674Z,101709.89
2019-05-25T20:47:22.250Z,101706.86
2019-05-25T20:49:55.580Z,101705.66
2019-05-25T20:52:28.971Z,101708.30
2019-05-25T20:55:02.631Z,101713.55
2019-05-25T20:57:36.032Z,101710.66
2019-05-25T21:00:09.337Z,101704.71
2019-05-25T21:02:42.952Z,101709.97
2019-05-25T21:05:16.281Z,101711.80
2019-05-25T21:07:49.593Z,101709.34
2019-05-25T21:10:22.942Z,101717.56
2019-05-25T21:12:56.508Z,101715.59
2019-05-25T21:15:29.827Z,101717.45
2019-05-25T21:18:03.190Z,101718.11
2019-05-25T21:20:36.510Z,101713.08
2019-05-25T21:23:09.853Z,101718.36
2019-05-25T21:25:43.443Z,101713.19
2019-05-25T21:28:16.785Z,101709.45
2019-05-25T21:30:50.125Z,101708.19
2019-05-25T21:33:23.582Z,101711.41
2019-05-25T21:36:07.669Z,101709.20
2019-05-25T21:38:31.952Z,101700.89
2019-05-25T21:41:05.287Z,101700.05
2019-05-25T21:43:38.638Z,101700.87
2019-05-25T21:46:11.961Z,101695.50
2019-05-25T21:48:45.291Z,101701.20
2019-05-25T21:51:18.650Z,101692.39
2019-05-25T21:53:51.978Z,101692.96
2019-05-25T21:56:25.320Z,101690.42
2019-05-25T21:58:58.703Z,101684.77
2019-05-25T22:01:32.007Z,101683.06
2019-05-25T22:04:06.064Z,101687.66
2019-05-25T22:06:40.139Z,101687.66
2019-05-25T22:09:13.505Z,101692.20
2019-05-25T22:11:46.802Z,101689.59
2019-05-25T22:14:20.145Z,101692.30
2019-05-25T22:16:53.641Z,101693.97
2019-05-25T22:19:27.002Z,101688.73
2019-05-25T22:22:00.383Z,101688.67
2019-05-25T22:24:33.746Z,101683.88
2019-05-25T22:27:07.077Z,101691.78
2019-05-25T22:29:40.394Z,101683.98
2019-05-25T22:32:13.763Z,101680.87
2019-05-25T22:34:47.139Z,101673.59
2019-05-25T22:37:20.461Z,101676.31
2019-05-25T22:39:53.625Z,101671.09
2019-05-25T22:42:26.951Z,101675.55
2019-05-25T22:45:00.289Z,101672.50
2019-05-25T22:47:33.616Z,101672.55
2019-05-25T22:50:08.672Z,101669.98
2019-05-25T22:52:41.812Z,101663.23
2019-05-25T22:55:15.162Z,101662.93
2019-05-25T22:57:48.471Z,101657.74
2019-05-25T23:00:21.798Z,101660.91
2019-05-25T23:02:55.333Z,101651.56
2019-05-25T23:05:28.673Z,101654.09
2019-05-25T23:08:02.135Z,101652.05
2019-05-25T23:10:35.515Z,101649.06
2019-05-25T23:13:08.821Z,101648.40
2019-05-25T23:15:42.193Z,101640.73
2019-05-25T23:18:15.501Z,101636.46
2019-05-25T23:20:48.923Z,101638.67
2019-05-25T23:23:23.536Z,101637.64
2019-05-25T23:25:56.892Z,101631.18
2019-05-25T23:28:30.360Z,101627.78
2019-05-25T23:31:03.702Z,101627.38
2019-05-25T23:33:37.025Z,101626.13
2019-05-25T23:36:11.963Z,101615.55
2019-05-25T23:38:45.263Z,101613.37
2019-05-25T23:41:18.639Z,101606.05
2019-05-25T23:43:51.987Z,101597.80
2019-05-25T23:46:25.340Z,101595.39
2019-05-25T23:48:58.670Z,101592.53
2019-05-25T23:51:31.982Z,101592.63
2019-05-25T23:54:05.329Z,101593.45
2019-05-25T23:56:38.628Z,101587.28
2019-05-25T23:59:13.556Z,101578.26
